Time;durP1;ratioP1;P1;durP2;ratioP2;P2;SDS_P1;SDS_P2;PMS_P1;PMS_P2;Temp;Humidity;BMP_temperature;BMP_pressure;BME280_temperature;BME280_humidity;BME280_pressure;Samples;Min_cycle;Max_cycle;Signal;HPM_P1;HPM_P2
2022/10/27 00:01:21;;;;;;;29.97;18.93;;;8.70;99.90;;;;;;5094037;28;20204;-72
2022/10/27 00:03:50;;;;;;;28.23;19.27;;;8.60;99.90;;;;;;5093725;28;20232;-71
2022/10/27 00:06:17;;;;;;;35.23;20.37;;;8.70;99.90;;;;;;5094159;28;20238;-71
2022/10/27 00:08:43;;;;;;;27.57;19.13;;;8.70;99.90;;;;;;5094050;28;20257;-72
2022/10/27 00:11:10;;;;;;;47.30;23.50;;;8.80;99.90;;;;;;5093895;28;20250;-71
2022/10/27 00:13:38;;;;;;;78.80;26.37;;;8.90;99.90;;;;;;5093881;28;20249;-71
2022/10/27 00:16:09;;;;;;;37.30;22.43;;;8.80;99.90;;;;;;5093640;28;20245;-71
2022/10/27 00:18:36;;;;;;;43.13;24.03;;;8.80;99.90;;;;;;5093774;28;20196;-71
2022/10/27 00:21:05;;;;;;;48.87;23.63;;;8.70;99.90;;;;;;5093654;28;20663;-71
2022/10/27 00:23:33;;;;;;;54.17;25.10;;;8.70;99.90;;;;;;5093801;28;20272;-71
2022/10/27 00:26:00;;;;;;;47.23;25.77;;;8.70;99.90;;;;;;5093672;28;20201;-72
2022/10/27 00:28:28;;;;;;;50.23;24.47;;;8.70;99.90;;;;;;5093564;28;20200;-71
2022/10/27 00:30:59;;;;;;;50.90;24.53;;;8.70;99.90;;;;;;5093497;28;20246;-71
2022/10/27 00:33:28;;;;;;;62.33;23.93;;;8.70;99.90;;;;;;5093659;28;20200;-71
2022/10/27 00:35:54;;;;;;;80.87;26.40;;;8.70;99.90;;;;;;5093499;28;20621;-71
2022/10/27 00:38:21;;;;;;;45.83;22.67;;;8.70;99.90;;;;;;5093435;28;20709;-71
2022/10/27 00:40:48;;;;;;;44.60;21.40;;;8.70;99.90;;;;;;5093510;28;20192;-71
2022/10/27 00:43:26;;;;;;;33.63;19.67;;;8.60;99.90;;;;;;5093454;28;20257;-71
2022/10/27 00:45:53;;;;;;;38.97;21.10;;;8.50;99.90;;;;;;5093585;28;20544;-71
2022/10/27 00:48:20;;;;;;;41.30;21.57;;;8.40;99.90;;;;;;5093539;28;20600;-71
2022/10/27 00:50:48;;;;;;;40.77;22.57;;;8.30;99.90;;;;;;5092719;28;20204;-71
2022/10/27 00:53:15;;;;;;;42.40;21.80;;;8.30;99.90;;;;;;5093221;28;20196;-72
2022/10/27 00:55:42;;;;;;;39.10;21.53;;;8.30;99.90;;;;;;5093094;28;20671;-71
2022/10/27 00:58:12;;;;;;;37.43;22.70;;;8.40;99.90;;;;;;5093039;28;20524;-71
2022/10/27 01:00:41;;;;;;;39.27;19.90;;;8.30;99.90;;;;;;5093053;28;20207;-71
2022/10/27 01:03:11;;;;;;;36.90;20.20;;;8.30;99.90;;;;;;5092824;28;20716;-71
2022/10/27 01:05:38;;;;;;;32.67;19.23;;;8.30;99.90;;;;;;5092996;28;20192;-72
2022/10/27 01:08:07;;;;;;;38.10;20.13;;;8.20;99.90;;;;;;5093028;28;20196;-71
2022/10/27 01:10:34;;;;;;;33.63;19.63;;;8.20;99.90;;;;;;5092817;28;20200;-71
2022/10/27 01:13:01;;;;;;;34.90;19.93;;;8.20;99.90;;;;;;5093020;28;20208;-72
2022/10/27 01:15:36;;;;;;;39.20;20.50;;;8.10;99.90;;;;;;5092942;28;20227;-71
2022/10/27 01:18:12;;;;;;;35.03;19.27;;;8.20;99.90;;;;;;5092860;28;20198;-71
2022/10/27 01:20:51;;;;;;;29.63;18.43;;;8.10;99.90;;;;;;5092897;28;20199;-71
2022/10/27 01:23:30;;;;;;;27.03;16.73;;;8.00;99.90;;;;;;5093007;28;20195;-72
2022/10/27 01:26:25;;;;;;;28.40;19.53;;;8.00;99.90;;;;;;5092920;28;20192;-71
2022/10/27 01:29:43;;;;;;;24.37;17.53;;;8.10;99.90;;;;;;5093002;28;20253;-72
2022/10/27 01:32:23;;;;;;;35.70;21.07;;;8.20;99.90;;;;;;5092903;28;20253;-71
2022/10/27 01:34:54;;;;;;;32.33;20.90;;;8.10;99.90;;;;;;5092757;28;20312;-71
2022/10/27 01:37:26;;;;;;;37.20;20.77;;;8.10;99.90;;;;;;5092689;28;20712;-71
2022/10/27 01:39:59;;;;;;;34.90;19.60;;;8.00;99.90;;;;;;5092934;28;20254;-72
2022/10/27 01:42:32;;;;;;;32.70;18.83;;;8.00;99.90;;;;;;5092570;28;20614;-71
2022/10/27 01:45:01;;;;;;;32.27;19.57;;;8.00;99.90;;;;;;5092639;28;20253;-72
2022/10/27 01:47:31;;;;;;;39.70;21.33;;;8.10;99.90;;;;;;5092624;28;20204;-71
2022/10/27 01:49:57;;;;;;;36.90;21.73;;;8.00;99.90;;;;;;5092523;28;20218;-71
2022/10/27 01:52:40;;;;;;;35.73;21.30;;;8.00;99.90;;;;;;5092445;28;20730;-71
2022/10/27 01:55:09;;;;;;;52.73;21.97;;;8.00;99.90;;;;;;5092386;28;20847;-71
2022/10/27 01:57:46;;;;;;;34.80;19.80;;;8.20;99.90;;;;;;5092642;28;20258;-71
2022/10/27 02:00:13;;;;;;;31.47;19.23;;;8.20;99.90;;;;;;5092529;28;20206;-72
2022/10/27 02:02:46;;;;;;;51.07;22.40;;;8.20;99.90;;;;;;5092355;28;20201;-72
2022/10/27 02:05:20;;;;;;;40.13;20.53;;;8.30;99.90;;;;;;5096076;28;20228;-71
2022/10/27 02:07:55;;;;;;;44.97;22.70;;;8.20;99.90;;;;;;5096383;28;20205;-71
2022/10/27 02:10:26;;;;;;;47.10;23.37;;;8.20;99.90;;;;;;5096256;28;20229;-71
2022/10/27 02:12:53;;;;;;;48.43;23.73;;;8.20;99.90;;;;;;5096104;28;20200;-71
2022/10/27 02:15:31;;;;;;;47.93;21.17;;;8.20;99.90;;;;;;5096080;28;20280;-71
2022/10/27 02:18:05;;;;;;;50.53;22.67;;;8.20;99.90;;;;;;5095960;28;20260;-71
2022/10/27 02:20:37;;;;;;;52.60;21.57;;;8.30;99.90;;;;;;5096232;28;20544;-72
2022/10/27 02:23:07;;;;;;;51.17;22.50;;;8.20;99.90;;;;;;5096187;28;20200;-71
2022/10/27 02:25:40;;;;;;;36.00;21.70;;;8.20;99.90;;;;;;5095947;28;20195;-71
2022/10/27 02:28:09;;;;;;;40.77;20.93;;;8.20;99.90;;;;;;5096349;28;20204;-71
2022/10/27 02:30:37;;;;;;;38.77;21.07;;;8.20;99.90;;;;;;5096071;28;20207;-71
2022/10/27 02:33:06;;;;;;;52.40;25.10;;;8.20;99.90;;;;;;5095927;28;20250;-71
2022/10/27 02:35:33;;;;;;;66.27;27.83;;;8.20;99.90;;;;;;5095896;28;20262;-71
2022/10/27 02:38:00;;;;;;;45.50;23.83;;;8.20;99.90;;;;;;5095763;28;20192;-71
2022/10/27 02:40:26;;;;;;;43.03;21.60;;;8.10;99.90;;;;;;5095604;28;20608;-71
2022/10/27 02:42:53;;;;;;;59.03;25.37;;;8.00;99.90;;;;;;5095912;28;20253;-71
2022/10/27 02:45:20;;;;;;;32.07;19.43;;;8.00;99.90;;;;;;5095685;28;20249;-71
2022/10/27 02:47:47;;;;;;;41.70;19.83;;;7.90;99.90;;;;;;5095570;28;20201;-71
2022/10/27 02:50:15;;;;;;;50.40;21.87;;;7.90;99.90;;;;;;5095470;28;20193;-71
2022/10/27 02:52:42;;;;;;;33.27;18.90;;;7.90;99.90;;;;;;5095350;28;20196;-72
2022/10/27 02:55:09;;;;;;;38.67;19.37;;;7.80;99.90;;;;;;5095561;28;20272;-71
2022/10/27 02:57:36;;;;;;;34.90;18.37;;;7.80;99.90;;;;;;5095433;28;20601;-71
2022/10/27 03:00:03;;;;;;;37.67;19.73;;;7.80;99.90;;;;;;5095180;28;20753;-71
2022/10/27 03:02:30;;;;;;;30.83;16.77;;;7.70;99.90;;;;;;5095327;28;20229;-71
2022/10/27 03:04:57;;;;;;;29.80;19.50;;;7.70;99.90;;;;;;5094961;28;20261;-71
2022/10/27 03:07:25;;;;;;;33.43;20.07;;;7.80;99.90;;;;;;5095694;28;20622;-71
2022/10/27 03:09:52;;;;;;;32.83;20.00;;;7.80;99.90;;;;;;5095201;28;20262;-71
2022/10/27 03:12:18;;;;;;;32.93;18.37;;;7.70;99.90;;;;;;5095112;28;20196;-72
2022/10/27 03:14:45;;;;;;;31.23;18.63;;;7.70;99.90;;;;;;5094554;28;20200;-71
2022/10/27 03:17:11;;;;;;;48.93;21.90;;;7.70;99.90;;;;;;5094853;28;20220;-71
2022/10/27 03:19:38;;;;;;;55.00;21.43;;;7.80;99.90;;;;;;5094691;28;20246;-71
2022/10/27 03:22:05;;;;;;;39.30;20.57;;;7.80;99.90;;;;;;5094897;28;20204;-71
2022/10/27 03:24:33;;;;;;;39.37;20.50;;;7.70;99.90;;;;;;5094684;28;20720;-71
2022/10/27 03:26:59;;;;;;;46.03;20.57;;;7.70;99.90;;;;;;5094569;28;20682;-72
2022/10/27 03:29:26;;;;;;;37.80;19.33;;;7.60;99.90;;;;;;5094553;28;20700;-71
2022/10/27 03:31:53;;;;;;;33.67;17.73;;;7.60;99.90;;;;;;5094578;28;20248;-71
2022/10/27 03:34:19;;;;;;;45.67;18.37;;;7.60;99.90;;;;;;5094458;28;20273;-71
2022/10/27 03:36:46;;;;;;;32.50;16.03;;;7.50;99.90;;;;;;5094577;28;20277;-71
2022/10/27 03:39:12;;;;;;;31.77;17.57;;;7.40;99.90;;;;;;5094637;28;20202;-71
2022/10/27 03:41:40;;;;;;;32.07;18.90;;;7.40;99.90;;;;;;5094274;28;20675;-71
2022/10/27 03:44:07;;;;;;;25.60;15.67;;;7.40;99.90;;;;;;5094405;28;20200;-71
2022/10/27 03:46:34;;;;;;;26.90;16.47;;;7.40;99.90;;;;;;5094367;28;20290;-72
2022/10/27 03:49:00;;;;;;;28.80;16.87;;;7.30;99.90;;;;;;5094526;28;20196;-71
2022/10/27 03:51:27;;;;;;;30.47;17.17;;;7.30;99.90;;;;;;5094323;28;20200;-71
2022/10/27 03:53:54;;;;;;;21.97;15.13;;;7.20;99.90;;;;;;5094288;28;20192;-71
2022/10/27 03:56:21;;;;;;;26.10;15.73;;;7.20;99.90;;;;;;5094127;28;20296;-71
2022/10/27 03:58:49;;;;;;;24.83;14.67;;;7.20;99.90;;;;;;5093995;28;20550;-72
2022/10/27 04:01:15;;;;;;;20.43;14.20;;;7.10;99.90;;;;;;5093758;28;20697;-71
2022/10/27 04:03:42;;;;;;;23.20;13.60;;;7.20;99.90;;;;;;5093943;28;20225;-71
2022/10/27 04:06:08;;;;;;;21.20;13.10;;;7.20;99.90;;;;;;5093901;28;20655;-71
2022/10/27 04:08:35;;;;;;;20.00;12.87;;;7.20;99.90;;;;;;5094015;28;20249;-71
2022/10/27 04:11:02;;;;;;;21.00;13.37;;;7.20;99.90;;;;;;5093784;28;20198;-71
2022/10/27 04:13:28;;;;;;;21.33;12.73;;;7.20;99.90;;;;;;5093848;28;20200;-71
2022/10/27 04:15:59;;;;;;;17.37;11.90;;;7.20;99.90;;;;;;5093573;28;20225;-71
2022/10/27 04:18:26;;;;;;;15.90;11.33;;;7.20;99.90;;;;;;5093840;28;20200;-71
2022/10/27 04:20:52;;;;;;;21.83;12.90;;;7.10;99.90;;;;;;5093662;28;20193;-72
2022/10/27 04:23:19;;;;;;;21.83;13.53;;;7.20;99.90;;;;;;5093745;28;20193;-71
2022/10/27 04:25:46;;;;;;;26.43;14.50;;;7.20;99.90;;;;;;5092884;28;20539;-71
2022/10/27 04:28:14;;;;;;;21.37;13.63;;;7.20;99.90;;;;;;5093583;28;20192;-72
2022/10/27 04:30:41;;;;;;;21.13;12.60;;;7.10;99.90;;;;;;5093490;28;20287;-72
2022/10/27 04:33:09;;;;;;;28.87;14.37;;;7.10;99.90;;;;;;5093435;28;20712;-71
2022/10/27 04:35:36;;;;;;;21.90;13.13;;;7.00;99.90;;;;;;5093543;28;20249;-71
2022/10/27 04:38:03;;;;;;;24.57;14.47;;;7.00;99.90;;;;;;5093431;28;20242;-71
2022/10/27 04:40:30;;;;;;;29.57;14.80;;;7.00;99.90;;;;;;5093294;28;20197;-71
2022/10/27 04:42:56;;;;;;;26.80;14.17;;;7.00;99.90;;;;;;5093260;28;20245;-71
2022/10/27 04:45:23;;;;;;;26.07;14.20;;;7.00;99.90;;;;;;5093476;28;20249;-71
2022/10/27 04:47:50;;;;;;;26.47;16.40;;;6.90;99.90;;;;;;5093290;28;20242;-71
2022/10/27 04:50:18;;;;;;;28.93;15.97;;;6.90;99.90;;;;;;5093331;28;20250;-71
2022/10/27 04:52:55;;;;;;;30.37;15.57;;;6.90;99.90;;;;;;5093260;28;20200;-71
2022/10/27 04:55:21;;;;;;;23.77;14.67;;;6.90;99.90;;;;;;5093074;28;20278;-71
2022/10/27 04:57:48;;;;;;;31.00;16.10;;;7.00;99.90;;;;;;5093271;28;20224;-72
2022/10/27 05:00:15;;;;;;;51.27;18.17;;;7.00;99.90;;;;;;5093215;28;20249;-71
2022/10/27 05:02:42;;;;;;;31.40;16.80;;;7.10;99.90;;;;;;5093063;28;20200;-72
2022/10/27 05:05:09;;;;;;;30.77;16.90;;;7.20;99.90;;;;;;5092793;28;20257;-71
2022/10/27 05:07:37;;;;;;;38.43;20.97;;;7.10;99.90;;;;;;5092906;28;20211;-71
2022/10/27 05:10:04;;;;;;;30.93;17.50;;;7.20;99.90;;;;;;5092877;28;20254;-71
2022/10/27 05:12:30;;;;;;;31.03;18.67;;;7.10;99.90;;;;;;5092740;28;20225;-72
2022/10/27 05:14:57;;;;;;;32.27;17.10;;;7.00;99.90;;;;;;5092904;28;20197;-71
2022/10/27 05:17:24;;;;;;;61.37;38.87;;;7.00;99.90;;;;;;5092741;28;20228;-71
2022/10/27 05:19:50;;;;;;;42.97;21.60;;;6.90;99.90;;;;;;5092699;28;20199;-71
2022/10/27 05:22:17;;;;;;;34.23;19.67;;;7.00;99.90;;;;;;5092800;28;20601;-71
2022/10/27 05:24:45;;;;;;;28.97;18.73;;;7.00;99.90;;;;;;5092624;28;20197;-71
2022/10/27 05:27:11;;;;;;;64.70;24.00;;;7.00;99.90;;;;;;5092907;28;20192;-71
2022/10/27 05:29:38;;;;;;;70.37;25.87;;;7.10;99.90;;;;;;5092854;28;20273;-71
2022/10/27 05:32:05;;;;;;;55.97;24.43;;;7.20;99.90;;;;;;5092688;28;20201;-71
2022/10/27 05:34:31;;;;;;;54.60;25.80;;;7.30;99.90;;;;;;5092714;28;20222;-71
2022/10/27 05:36:58;;;;;;;45.73;23.73;;;7.30;99.90;;;;;;5092699;28;20285;-71
2022/10/27 05:39:25;;;;;;;39.17;23.07;;;7.30;99.90;;;;;;5096745;28;20234;-71
2022/10/27 05:41:53;;;;;;;41.07;24.07;;;7.30;99.90;;;;;;5085510;28;20687;-71
2022/10/27 05:44:19;;;;;;;56.87;23.57;;;7.40;99.90;;;;;;5076354;28;20284;-71
2022/10/27 05:46:46;;;;;;;41.53;22.73;;;7.40;99.90;;;;;;5076551;28;20200;-71
2022/10/27 05:49:13;;;;;;;50.07;23.83;;;7.40;99.90;;;;;;5076376;28;20204;-71
2022/10/27 05:51:40;;;;;;;40.60;22.77;;;7.40;99.90;;;;;;5076092;28;20254;-71
2022/10/27 05:54:07;;;;;;;46.23;23.37;;;7.40;99.90;;;;;;5076150;28;20201;-72
2022/10/27 05:56:33;;;;;;;45.23;24.23;;;7.40;99.90;;;;;;5076091;28;20282;-71
2022/10/27 05:59:01;;;;;;;50.00;24.80;;;7.40;99.90;;;;;;5076052;28;20201;-71
2022/10/27 06:01:28;;;;;;;47.70;23.73;;;7.40;99.90;;;;;;5075992;28;20258;-71
2022/10/27 06:03:54;;;;;;;41.10;23.53;;;7.50;99.90;;;;;;5075629;28;20236;-71
2022/10/27 06:06:21;;;;;;;40.63;23.73;;;7.40;99.90;;;;;;5075823;28;20206;-71
2022/10/27 06:08:48;;;;;;;44.27;23.53;;;7.40;99.90;;;;;;5076062;28;20533;-72
2022/10/27 06:11:15;;;;;;;38.77;21.47;;;7.40;99.90;;;;;;5075807;28;20201;-71
2022/10/27 06:13:42;;;;;;;43.93;22.13;;;7.30;99.90;;;;;;5076052;28;20251;-72
2022/10/27 06:16:10;;;;;;;39.10;21.20;;;7.30;99.90;;;;;;5075736;28;20201;-72
2022/10/27 06:18:36;;;;;;;34.63;20.10;;;7.30;99.90;;;;;;5075825;28;20197;-72
2022/10/27 06:21:03;;;;;;;35.57;19.20;;;7.30;99.90;;;;;;5075596;28;20199;-71
2022/10/27 06:23:30;;;;;;;29.07;18.17;;;7.30;99.90;;;;;;5075497;28;20533;-71
2022/10/27 06:25:56;;;;;;;27.50;18.07;;;7.30;99.90;;;;;;5075721;28;20295;-71
2022/10/27 06:28:23;;;;;;;27.13;18.30;;;7.30;99.90;;;;;;5075686;28;20248;-71
2022/10/27 06:30:50;;;;;;;24.07;17.27;;;7.30;99.90;;;;;;5075532;28;20201;-72
2022/10/27 06:33:18;;;;;;;29.97;19.23;;;7.40;99.90;;;;;;5075372;28;20255;-71
2022/10/27 06:35:45;;;;;;;34.30;19.07;;;7.40;99.90;;;;;;5075362;28;20220;-71
2022/10/27 06:38:15;;;;;;;32.67;19.07;;;7.40;99.90;;;;;;5075290;28;20278;-71
2022/10/27 06:40:42;;;;;;;31.77;18.93;;;7.40;99.90;;;;;;5075229;28;20559;-71
2022/10/27 06:43:09;;;;;;;25.43;17.33;;;7.40;99.90;;;;;;5075312;28;20213;-72
2022/10/27 06:45:36;;;;;;;28.43;17.93;;;7.40;99.90;;;;;;5074747;28;20731;-72
2022/10/27 06:48:04;;;;;;;34.57;19.37;;;7.50;99.90;;;;;;5073865;28;20659;-72
2022/10/27 06:50:32;;;;;;;28.77;19.43;;;7.60;99.90;;;;;;5073846;28;20243;-72
2022/10/27 06:53:00;;;;;;;32.63;20.63;;;7.60;99.90;;;;;;5075346;28;20205;-72
2022/10/27 06:55:26;;;;;;;30.17;19.40;;;7.70;99.90;;;;;;5075406;28;20284;-72
2022/10/27 06:57:54;;;;;;;29.23;19.17;;;7.80;99.90;;;;;;5075197;28;20225;-72
2022/10/27 07:00:21;;;;;;;29.37;19.80;;;7.80;99.90;;;;;;5074982;28;20199;-72
2022/10/27 07:02:48;;;;;;;25.73;18.17;;;7.90;99.90;;;;;;5074942;28;20201;-72
2022/10/27 07:05:15;;;;;;;28.33;18.47;;;7.90;99.90;;;;;;5074445;28;20228;-72
2022/10/27 07:07:46;;;;;;;28.40;18.43;;;8.00;99.90;;;;;;5074738;28;20278;-73
2022/10/27 07:10:12;;;;;;;30.50;20.87;;;8.20;99.90;;;;;;5092804;28;20192;-72
2022/10/27 07:12:39;;;;;;;27.80;19.07;;;8.30;99.90;;;;;;5094859;28;20540;-72
2022/10/27 07:15:06;;;;;;;27.83;19.63;;;8.50;99.90;;;;;;5094771;28;20200;-73
2022/10/27 07:17:33;;;;;;;36.87;21.83;;;8.60;99.90;;;;;;5094579;28;20776;-72
2022/10/27 07:20:00;;;;;;;31.10;19.77;;;8.70;99.90;;;;;;5094819;28;20202;-72
2022/10/27 07:22:26;;;;;;;34.53;20.67;;;8.80;99.90;;;;;;5094625;28;20203;-72
2022/10/27 07:24:54;;;;;;;33.20;19.73;;;8.80;99.90;;;;;;5094687;28;20200;-72
2022/10/27 07:27:21;;;;;;;31.87;20.00;;;8.90;99.90;;;;;;5094662;28;20273;-73
2022/10/27 07:29:48;;;;;;;33.50;20.17;;;9.00;99.90;;;;;;5094459;28;20197;-73
2022/10/27 07:32:15;;;;;;;36.73;21.27;;;9.10;99.90;;;;;;5094685;28;20206;-72
2022/10/27 07:34:41;;;;;;;33.70;20.87;;;9.20;99.90;;;;;;5094413;28;20704;-73
2022/10/27 07:37:08;;;;;;;31.47;20.57;;;9.30;99.90;;;;;;5094234;28;20208;-72
2022/10/27 07:39:34;;;;;;;32.20;21.00;;;9.40;99.90;;;;;;5094448;28;20233;-73
2022/10/27 07:42:02;;;;;;;32.57;19.97;;;9.60;99.90;;;;;;5094180;28;20192;-73
2022/10/27 07:44:29;;;;;;;30.47;20.47;;;9.70;99.90;;;;;;5094381;28;20200;-73
2022/10/27 07:46:56;;;;;;;23.57;18.63;;;9.80;99.90;;;;;;5094420;28;20602;-72
2022/10/27 07:49:22;;;;;;;28.07;20.60;;;9.90;99.90;;;;;;5094114;28;20552;-72
2022/10/27 07:51:49;;;;;;;30.43;22.17;;;10.10;99.90;;;;;;5091179;28;20196;-73
2022/10/27 07:54:16;;;;;;;28.83;22.23;;;10.30;99.90;;;;;;5096083;28;20238;-73
2022/10/27 07:56:42;;;;;;;30.37;22.03;;;10.40;99.90;;;;;;5093736;28;20192;-72
2022/10/27 07:59:11;;;;;;;29.53;22.53;;;10.60;99.90;;;;;;5094121;28;20204;-72
2022/10/27 08:01:38;;;;;;;30.03;20.70;;;10.70;99.90;;;;;;5092879;28;20239;-72
2022/10/27 08:04:05;;;;;;;28.03;19.87;;;10.90;99.90;;;;;;5073376;28;20224;-73
2022/10/27 08:06:31;;;;;;;22.47;19.50;;;11.10;99.90;;;;;;5073531;28;20237;-74
2022/10/27 08:08:58;;;;;;;25.83;18.97;;;11.20;99.90;;;;;;5073470;28;20193;-73
2022/10/27 08:11:25;;;;;;;23.30;17.37;;;11.40;99.90;;;;;;5073456;28;20250;-73
2022/10/27 08:13:52;;;;;;;24.97;18.10;;;11.70;99.90;;;;;;5073455;28;20201;-73
2022/10/27 08:16:20;;;;;;;18.87;16.50;;;11.80;99.90;;;;;;5073587;28;20197;-73
2022/10/27 08:18:47;;;;;;;22.70;16.87;;;12.00;99.90;;;;;;5073185;28;20282;-73
2022/10/27 08:21:13;;;;;;;17.40;14.60;;;12.10;99.90;;;;;;5073365;28;20193;-73
2022/10/27 08:23:40;;;;;;;16.90;15.10;;;12.30;99.90;;;;;;5073052;28;20235;-73
2022/10/27 08:26:07;;;;;;;16.80;13.80;;;12.50;99.90;;;;;;5072951;28;20200;-73
2022/10/27 08:28:34;;;;;;;22.20;13.87;;;12.80;99.90;;;;;;5071577;28;20725;-74
2022/10/27 08:31:00;;;;;;;15.10;13.37;;;13.00;99.90;;;;;;5083766;28;20652;-74
2022/10/27 08:33:28;;;;;;;18.43;14.80;;;13.20;99.90;;;;;;5072845;28;20251;-74
2022/10/27 08:35:55;;;;;;;15.80;12.77;;;13.40;99.90;;;;;;5072720;28;20242;-74
2022/10/27 08:38:21;;;;;;;15.93;12.00;;;13.70;99.90;;;;;;5072828;28;20220;-74
2022/10/27 08:41:01;;;;;;;15.27;11.90;;;13.90;99.90;;;;;;5073114;28;20196;-74
2022/10/27 08:44:03;;;;;;;14.80;11.57;;;14.20;99.90;;;;;;5073261;28;20254;-74
2022/10/27 08:46:36;;;;;;;10.67;9.60;;;14.60;99.90;;;;;;5072838;28;20598;-75
2022/10/27 08:49:09;;;;;;;10.50;9.40;;;14.90;99.90;;;;;;5073220;28;20248;-74
2022/10/27 08:51:37;;;;;;;11.50;8.97;;;15.20;99.90;;;;;;5072884;28;20201;-74
2022/10/27 08:54:06;;;;;;;13.80;8.75;;;15.40;99.90;;;;;;5072960;28;20196;-74
2022/10/27 08:56:38;;;;;;;11.65;7.68;;;15.70;99.90;;;;;;5072551;28;20205;-74
2022/10/27 08:59:05;;;;;;;12.77;8.25;;;16.00;99.90;;;;;;5072564;28;20282;-74
2022/10/27 09:01:41;;;;;;;10.55;7.82;;;16.40;99.90;;;;;;5072843;28;20258;-74
2022/10/27 09:04:20;;;;;;;16.77;8.55;;;16.70;99.90;;;;;;5072898;28;20305;-74
2022/10/27 09:06:57;;;;;;;9.93;8.18;;;17.10;99.90;;;;;;5073083;28;20697;-74
2022/10/27 09:09:30;;;;;;;14.60;7.97;;;17.30;99.90;;;;;;5072733;28;20226;-75
2022/10/27 09:12:09;;;;;;;13.63;7.55;;;17.60;99.90;;;;;;5072142;28;20193;-74
2022/10/27 09:15:04;;;;;;;10.20;7.22;;;17.80;99.90;;;;;;5072733;28;20800;-75
2022/10/27 09:17:38;;;;;;;9.98;7.93;;;18.10;99.90;;;;;;5072466;28;20768;-74
2022/10/27 09:20:16;;;;;;;12.43;7.90;;;18.40;99.90;;;;;;5072807;28;20205;-74
2022/10/27 09:22:43;;;;;;;14.07;8.50;;;18.50;99.90;;;;;;5072393;28;20193;-75
2022/10/27 09:25:18;;;;;;;13.57;8.88;;;18.20;99.90;;;;;;5072424;28;20822;-75
2022/10/27 09:27:46;;;;;;;15.32;9.35;;;18.30;99.90;;;;;;5081922;28;20261;-76
2022/10/27 09:30:14;;;;;;;13.07;9.07;;;18.50;99.90;;;;;;5107455;28;20199;-74
2022/10/27 09:32:46;;;;;;;15.23;8.73;;;18.70;99.90;;;;;;5112723;28;20202;-75
2022/10/27 09:35:16;;;;;;;11.82;8.40;;;18.70;99.90;;;;;;5074035;28;20221;-75
2022/10/27 09:37:44;;;;;;;17.50;8.52;;;18.90;99.90;;;;;;5072569;28;20223;-75
2022/10/27 09:40:13;;;;;;;17.90;9.32;;;18.70;99.90;;;;;;5072226;28;20224;-75
2022/10/27 09:42:40;;;;;;;10.55;8.52;;;18.50;99.90;;;;;;5072264;28;20201;-75
2022/10/27 09:45:15;;;;;;;13.90;8.65;;;18.70;99.90;;;;;;5072290;28;20280;-75
2022/10/27 09:47:43;;;;;;;15.65;9.18;;;19.10;99.90;;;;;;5072282;28;20230;-74
2022/10/27 09:50:18;;;;;;;12.82;8.30;;;19.30;99.90;;;;;;5072309;28;20201;-75
2022/10/27 09:52:45;;;;;;;11.40;8.38;;;19.70;99.90;;;;;;5072457;28;20196;-75
2022/10/27 09:55:12;;;;;;;15.02;8.48;;;20.20;99.90;;;;;;5072090;28;20204;-75
2022/10/27 09:57:41;;;;;;;13.40;8.40;;;20.50;99.90;;;;;;5071987;28;20278;-73
2022/10/27 10:00:24;;;;;;;13.82;8.40;;;20.80;99.90;;;;;;5072365;28;20201;-76
2022/10/27 10:02:59;;;;;;;14.65;9.10;;;20.70;99.90;;;;;;5072924;28;20663;-77
2022/10/27 10:05:30;;;;;;;15.13;8.73;;;20.10;99.90;;;;;;5072307;28;20605;-77
2022/10/27 10:08:20;;;;;;;13.45;8.77;;;20.30;99.90;;;;;;5072646;28;20197;-89
2022/10/27 10:10:54;;;;;;;17.67;7.93;;;21.20;99.90;;;;;;5072608;28;20709;-76
2022/10/27 10:13:22;;;;;;;13.95;8.35;;;22.30;99.90;;;;;;5072147;28;20196;-76
2022/10/27 10:16:04;;;;;;;15.80;8.18;;;23.50;99.90;;;;;;5072379;28;20284;-75
2022/10/27 10:18:31;;;;;;;10.93;6.95;;;24.80;99.90;;;;;;5072025;28;20232;-77
2022/10/27 10:21:01;;;;;;;14.00;7.53;;;25.70;99.90;;;;;;5072363;28;20197;-76
2022/10/27 10:23:31;;;;;;;14.13;7.85;;;25.20;99.90;;;;;;5072303;28;20640;-76
2022/10/27 10:25:59;;;;;;;11.18;6.57;;;25.40;99.90;;;;;;5075578;28;20304;-76
2022/10/27 10:28:33;;;;;;;8.80;7.00;;;26.20;99.90;;;;;;5075637;28;20196;-76
2022/10/27 10:31:01;;;;;;;10.23;7.70;;;26.30;99.90;;;;;;5075688;28;20281;-76
2022/10/27 10:33:33;;;;;;;13.00;7.47;;;26.80;99.90;;;;;;5075645;28;20210;-77
2022/10/27 10:36:02;;;;;;;10.93;7.35;;;26.10;99.90;;;;;;5075816;28;20246;-76
2022/10/27 10:38:33;;;;;;;13.75;7.80;;;25.50;99.90;;;;;;5075701;28;20221;-76
2022/10/27 10:41:02;;;;;;;15.48;7.75;;;25.40;99.90;;;;;;5075668;28;20564;-76
2022/10/27 10:43:29;;;;;;;12.18;6.88;;;26.00;99.90;;;;;;5075277;28;20628;-76
2022/10/27 10:45:57;;;;;;;14.07;6.95;;;26.50;99.90;;;;;;5075626;28;20227;-76
2022/10/27 10:48:31;;;;;;;9.73;6.95;;;27.20;99.90;;;;;;5075516;28;20197;-76
2022/10/27 10:50:58;;;;;;;8.93;7.40;;;27.40;99.90;;;;;;5075350;28;20197;-76
2022/10/27 10:53:30;;;;;;;10.60;6.70;;;28.20;99.90;;;;;;5075175;28;20288;-76
2022/10/27 10:56:01;;;;;;;11.07;6.60;;;28.40;99.90;;;;;;5075245;28;20205;-76
2022/10/27 10:58:30;;;;;;;12.32;6.68;;;26.70;99.90;;;;;;5075415;28;20225;-76
2022/10/27 11:00:59;;;;;;;9.95;6.45;;;26.70;99.90;;;;;;5075198;28;20201;-76
2022/10/27 11:03:29;;;;;;;8.98;6.15;;;27.30;99.90;;;;;;5074943;28;20224;-76
2022/10/27 11:06:00;;;;;;;13.05;6.85;;;27.50;99.90;;;;;;5075093;28;20201;-76
2022/10/27 11:08:34;;;;;;;11.65;5.72;;;27.20;99.90;;;;;;5075014;28;20201;-75
2022/10/27 11:11:03;;;;;;;13.25;5.82;;;27.50;99.90;;;;;;5075193;28;20192;-75
2022/10/27 11:13:37;;;;;;;11.95;5.75;;;27.20;99.90;;;;;;5075053;28;20196;-75
2022/10/27 11:16:07;;;;;;;8.57;5.65;;;28.00;99.90;;;;;;5074989;28;20200;-76
2022/10/27 11:18:42;;;;;;;7.57;5.40;;;28.60;99.90;;;;;;5074765;28;20274;-76
2022/10/27 11:21:15;;;;;;;11.50;5.07;;;29.40;99.90;;;;;;5074654;28;20196;-76
2022/10/27 11:23:46;;;;;;;9.25;5.15;;;30.10;99.90;;;;;;5074713;28;20258;-76
2022/10/27 11:26:15;;;;;;;10.02;5.05;;;30.70;99.90;;;;;;5074773;28;20255;-76
2022/10/27 11:28:50;;;;;;;11.18;5.38;;;30.80;98.80;;;;;;5074531;28;20255;-76
2022/10/27 11:31:21;;;;;;;10.88;5.38;;;30.40;98.00;;;;;;5074313;28;20300;-76
2022/10/27 11:33:55;;;;;;;9.93;5.13;;;31.10;97.50;;;;;;5074288;28;20648;-76
2022/10/27 11:36:27;;;;;;;8.27;4.55;;;31.60;96.20;;;;;;5073888;28;20721;-76
2022/10/27 11:39:02;;;;;;;10.13;4.50;;;31.60;95.50;;;;;;5074272;28;20228;-76
2022/10/27 11:41:36;;;;;;;9.82;5.10;;;31.50;94.90;;;;;;5074133;28;20282;-76
2022/10/27 11:44:09;;;;;;;9.18;4.30;;;31.80;94.50;;;;;;5074113;28;20204;-76
2022/10/27 11:46:43;;;;;;;9.25;4.50;;;31.90;93.60;;;;;;5074338;28;20197;-76
2022/10/27 11:49:16;;;;;;;6.82;4.00;;;30.80;93.60;;;;;;5074201;28;20208;-76
2022/10/27 11:51:48;;;;;;;15.10;4.70;;;32.30;92.50;;;;;;5074157;28;20613;-76
2022/10/27 11:54:16;;;;;;;11.27;4.85;;;31.40;91.90;;;;;;5073857;28;20567;-76
2022/10/27 11:56:56;;;;;;;9.48;4.78;;;31.90;90.70;;;;;;5073882;28;20540;-76
2022/10/27 11:59:27;;;;;;;9.85;4.13;;;32.20;90.60;;;;;;5074003;28;20239;-76
2022/10/27 12:02:11;;;;;;;8.57;3.97;;;31.40;90.40;;;;;;5073812;28;20197;-76
2022/10/27 12:04:47;;;;;;;10.27;4.53;;;31.80;90.60;;;;;;5073591;28;20232;-76
2022/10/27 12:07:26;;;;;;;9.10;4.22;;;31.10;90.20;;;;;;5073865;28;20246;-76
2022/10/27 12:10:07;;;;;;;8.55;4.60;;;32.30;89.20;;;;;;5073694;28;20204;-76
2022/10/27 12:12:37;;;;;;;8.48;4.53;;;32.20;88.50;;;;;;5073323;28;20200;-76
2022/10/27 12:15:10;;;;;;;9.00;3.97;;;30.60;88.90;;;;;;5073552;28;20197;-76
2022/10/27 12:17:43;;;;;;;12.27;4.95;;;32.30;87.90;;;;;;5073661;28;20286;-76
2022/10/27 12:20:15;;;;;;;7.80;4.18;;;32.80;86.90;;;;;;5073446;28;20274;-76
2022/10/27 12:22:50;;;;;;;12.80;4.57;;;34.20;84.30;;;;;;5073546;28;20192;-76
2022/10/27 12:25:23;;;;;;;8.20;4.35;;;32.40;82.60;;;;;;5073449;28;20340;-76
2022/10/27 12:27:53;;;;;;;9.07;4.25;;;32.80;82.70;;;;;;5073763;28;20201;-76
2022/10/27 12:30:22;;;;;;;10.18;4.38;;;32.20;84.20;;;;;;5073189;28;20648;-76
2022/10/27 12:32:55;;;;;;;7.85;4.53;;;33.20;81.40;;;;;;5073177;28;20201;-76
2022/10/27 12:35:28;;;;;;;11.55;4.18;;;33.10;80.20;;;;;;5073186;28;20196;-76
2022/10/27 12:38:02;;;;;;;9.65;4.10;;;33.60;80.10;;;;;;5072871;28;20624;-76
2022/10/27 12:40:35;;;;;;;9.05;4.32;;;34.10;79.20;;;;;;5073361;28;20204;-76
2022/10/27 12:43:15;;;;;;;11.27;4.53;;;34.90;77.00;;;;;;5073050;28;20291;-76
2022/10/27 12:45:54;;;;;;;11.50;4.93;;;34.80;74.10;;;;;;5073099;28;20196;-75
2022/10/27 12:48:29;;;;;;;7.68;4.35;;;35.40;72.80;;;;;;5072203;28;20196;-75
2022/10/27 12:51:05;;;;;;;9.23;4.15;;;34.30;69.80;;;;;;5073138;28;20206;-76